createdAt,value
2018-12-09T00:00:46.515Z,0.00
2018-12-09T00:01:46.064Z,0.00
2018-12-09T00:02:46.232Z,0.00
2018-12-09T00:03:46.111Z,0.00
2018-12-09T00:04:47.162Z,0.00
2018-12-09T00:05:45.955Z,0.00
2018-12-09T00:06:46.002Z,0.00
2018-12-09T00:07:45.989Z,0.00
2018-12-09T00:08:45.845Z,0.00
2018-12-09T00:09:46.009Z,0.00
2018-12-09T00:10:35.500Z,0.00
2018-12-09T00:11:34.167Z,0.00
2018-12-09T00:12:34.058Z,0.00
2018-12-09T00:13:34.095Z,0.00
2018-12-09T00:14:34.001Z,0.00
2018-12-09T00:15:34.080Z,0.00
2018-12-09T00:17:40.526Z,0.00
2018-12-09T00:18:40.436Z,0.00
2018-12-09T00:19:40.229Z,0.00
2018-12-09T00:20:40.111Z,0.00
2018-12-09T00:21:40.130Z,0.00
2018-12-09T00:22:42.195Z,0.00
2018-12-09T00:23:40.185Z,0.00
2018-12-09T00:25:29.446Z,0.00
2018-12-09T00:26:29.536Z,0.00
2018-12-09T00:27:29.303Z,0.00
2018-12-09T00:28:30.428Z,0.00
2018-12-09T00:29:29.376Z,0.00
2018-12-09T00:30:29.250Z,0.00
2018-12-09T00:31:36.844Z,0.00
2018-12-09T00:33:59.887Z,0.00
2018-12-09T00:34:57.870Z,0.00
2018-12-09T00:35:57.856Z,0.00
2018-12-09T00:36:58.089Z,0.00
2018-12-09T00:37:57.680Z,0.00
2018-12-09T00:41:56.019Z,0.00
2018-12-09T00:43:02.853Z,0.00
2018-12-09T00:43:56.036Z,0.00
2018-12-09T00:44:56.908Z,0.00
2018-12-09T00:45:55.689Z,0.00
2018-12-09T00:49:54.030Z,0.00
2018-12-09T00:50:54.185Z,0.00
2018-12-09T00:52:49.720Z,0.00
2018-12-09T00:53:48.808Z,0.00
2018-12-09T00:54:50.607Z,0.00
2018-12-09T00:55:48.545Z,0.00
2018-12-09T00:56:49.626Z,0.00
2018-12-09T00:58:58.351Z,0.00
2018-12-09T00:59:58.159Z,0.00
2018-12-09T01:00:58.103Z,0.00
2018-12-09T01:01:58.222Z,0.00
2018-12-09T01:02:57.927Z,0.00
2018-12-09T01:03:57.983Z,0.00
2018-12-09T01:04:57.822Z,0.00
2018-12-09T01:06:47.835Z,0.00
2018-12-09T01:07:47.640Z,0.00
2018-12-09T01:08:47.527Z,0.00
2018-12-09T01:09:47.447Z,0.00
2018-12-09T01:10:48.974Z,0.00
2018-12-09T01:11:47.383Z,0.00
2018-12-09T01:13:41.674Z,0.00
2018-12-09T01:14:41.598Z,0.00
2018-12-09T01:15:41.548Z,0.00
2018-12-09T01:16:43.620Z,0.00
2018-12-09T01:17:41.455Z,0.00
2018-12-09T01:18:41.586Z,0.00
2018-12-09T01:19:41.415Z,0.00
2018-12-09T01:20:41.554Z,0.00
2018-12-09T01:21:41.367Z,0.00
2018-12-09T01:22:41.384Z,0.00
2018-12-09T01:24:29.752Z,0.00
2018-12-09T01:25:29.559Z,0.00
2018-12-09T01:27:27.838Z,0.00
2018-12-09T01:28:27.766Z,0.00
2018-12-09T01:29:27.692Z,0.00
2018-12-09T01:30:27.761Z,0.00
2018-12-09T01:31:27.667Z,0.00
2018-12-09T01:32:27.613Z,0.00
2018-12-09T01:33:27.578Z,0.00
2018-12-09T01:34:27.536Z,0.00
2018-12-09T01:35:27.502Z,0.00
2018-12-09T01:36:27.490Z,0.00
2018-12-09T01:38:23.137Z,0.00
2018-12-09T01:39:23.046Z,0.00
2018-12-09T01:40:23.014Z,0.00
2018-12-09T01:41:23.037Z,0.00
2018-12-09T01:42:23.139Z,0.00
2018-12-09T01:43:22.888Z,0.00
2018-12-09T01:44:22.835Z,0.00
2018-12-09T01:46:19.011Z,0.00
2018-12-09T01:47:18.960Z,0.00
2018-12-09T01:48:18.865Z,0.00
2018-12-09T01:49:18.877Z,0.00
2018-12-09T01:50:18.777Z,0.00
2018-12-09T01:51:18.740Z,0.00
2018-12-09T01:53:06.045Z,0.00
2018-12-09T01:54:05.785Z,0.00
2018-12-09T01:55:05.998Z,0.00
2018-12-09T01:56:05.815Z,0.00
2018-12-09T01:57:05.802Z,0.00
2018-12-09T01:58:54.457Z,0.00
2018-12-09T01:59:54.274Z,0.00
2018-12-09T02:02:44.746Z,0.00
2018-12-09T02:03:47.166Z,0.00
2018-12-09T02:04:44.629Z,0.00
2018-12-09T02:05:45.732Z,0.00
2018-12-09T02:06:44.583Z,0.00
2018-12-09T02:07:44.538Z,0.00
2018-12-09T02:08:44.500Z,0.00
2018-12-09T02:09:44.771Z,0.00
2018-12-09T02:10:51.143Z,0.00
2018-12-09T02:12:32.025Z,0.00
2018-12-09T02:13:39.611Z,0.00
2018-12-09T02:14:31.808Z,0.00
2018-12-09T02:15:32.977Z,0.00
2018-12-09T02:16:31.709Z,0.00
2018-12-09T02:18:59.707Z,0.00
2018-12-09T02:19:59.868Z,0.00
2018-12-09T02:20:59.659Z,0.00
2018-12-09T02:21:59.709Z,0.00
2018-12-09T02:22:59.527Z,0.00
2018-12-09T02:24:00.881Z,0.00
2018-12-09T02:24:59.461Z,0.00
2018-12-09T02:26:00.556Z,0.00
2018-12-09T02:26:59.371Z,0.00
2018-12-09T02:32:47.070Z,0.00
2018-12-09T02:33:28.583Z,0.00
2018-12-09T02:34:28.637Z,0.00
2018-12-09T02:35:28.573Z,0.00
2018-12-09T02:36:28.658Z,0.00
2018-12-09T02:37:28.450Z,0.00
2018-12-09T02:38:28.492Z,0.00
2018-12-09T02:39:28.366Z,0.00
2018-12-09T02:40:28.500Z,0.00
2018-12-09T02:42:37.314Z,0.00
2018-12-09T02:43:38.580Z,0.00
2018-12-09T02:44:37.237Z,0.00
2018-12-09T02:45:37.376Z,0.00
2018-12-09T02:46:37.240Z,0.00
2018-12-09T02:47:44.010Z,0.00
2018-12-09T02:48:37.087Z,0.00
2018-12-09T02:49:44.031Z,0.00
2018-12-09T02:50:37.028Z,0.00
2018-12-09T02:54:09.188Z,0.00
2018-12-09T02:55:09.373Z,0.00
2018-12-09T02:57:05.576Z,0.00
2018-12-09T02:58:05.312Z,0.00
2018-12-09T02:59:14.065Z,0.00
2018-12-09T03:00:05.268Z,0.00
2018-12-09T03:01:05.170Z,0.00
2018-12-09T03:02:12.660Z,0.00
2018-12-09T03:03:05.087Z,0.00
2018-12-09T03:04:05.104Z,0.00
2018-12-09T03:05:04.979Z,0.00
2018-12-09T03:06:05.015Z,0.00
2018-12-09T04:06:27.142Z,0.00
2018-12-09T04:07:24.661Z,0.00
2018-12-09T04:08:34.408Z,0.00
2018-12-09T04:09:24.533Z,0.00
2018-12-09T04:10:24.629Z,0.00
2018-12-09T04:19:17.436Z,0.00
2018-12-09T04:20:15.322Z,0.00
2018-12-09T04:22:15.150Z,0.00
2018-12-09T04:23:15.251Z,0.00
2018-12-09T04:24:15.453Z,0.00
2018-12-09T04:26:14.987Z,0.00
2018-12-09T04:27:32.049Z,0.00
2018-12-09T04:28:15.026Z,0.00
2018-12-09T04:32:04.243Z,0.00
2018-12-09T04:32:56.485Z,0.00
2018-12-09T04:33:56.592Z,0.00
2018-12-09T04:34:56.397Z,0.00
2018-12-09T04:35:56.465Z,0.00
2018-12-09T04:36:56.439Z,0.00
2018-12-09T04:37:57.426Z,0.00
2018-12-09T04:38:56.563Z,0.00
2018-12-09T04:39:56.357Z,0.00
2018-12-09T04:40:56.160Z,0.00
2018-12-09T04:41:56.161Z,0.00
2018-12-09T04:45:03.656Z,0.00
2018-12-09T04:46:03.627Z,0.00
2018-12-09T04:47:03.604Z,0.00
2018-12-09T04:48:04.638Z,0.00
2018-12-09T04:49:03.424Z,0.00
2018-12-09T04:50:24.697Z,0.00
2018-12-09T04:51:03.347Z,0.00
2018-12-09T04:52:03.337Z,0.00
2018-12-09T04:53:03.410Z,0.00
2018-12-09T04:54:03.246Z,0.00
2018-12-09T04:55:04.336Z,0.00
2018-12-09T05:00:18.350Z,0.00
2018-12-09T05:01:32.927Z,0.00
2018-12-09T05:02:18.288Z,0.00
2018-12-09T05:03:24.945Z,0.00
2018-12-09T05:04:18.198Z,0.00
2018-12-09T05:05:18.309Z,0.00
2018-12-09T05:06:18.189Z,0.00
2018-12-09T05:07:18.307Z,0.00
2018-12-09T05:08:18.024Z,0.00
2018-12-09T05:09:26.860Z,0.00
2018-12-09T05:10:17.953Z,0.00
2018-12-09T05:11:20.136Z,0.00
2018-12-09T05:13:28.888Z,0.00
2018-12-09T05:14:28.832Z,0.00
2018-12-09T05:15:28.741Z,0.00
2018-12-09T05:16:28.868Z,0.00
2018-12-09T05:17:28.793Z,0.00
2018-12-09T05:18:28.654Z,0.00
2018-12-09T05:19:28.625Z,0.00
2018-12-09T05:21:56.778Z,0.00
2018-12-09T05:22:56.658Z,0.00
2018-12-09T05:23:56.772Z,0.00
2018-12-09T05:24:56.660Z,0.00
2018-12-09T05:25:57.085Z,0.00
2018-12-09T05:26:56.537Z,0.00
2018-12-09T05:28:03.338Z,0.00
2018-12-09T05:28:56.472Z,0.00
2018-12-09T05:29:56.438Z,0.00
2018-12-09T05:30:56.418Z,0.00
2018-12-09T05:33:55.111Z,0.00
2018-12-09T05:34:53.611Z,0.00
2018-12-09T05:35:53.551Z,0.00
2018-12-09T05:36:53.559Z,0.00
2018-12-09T05:37:56.023Z,0.00
2018-12-09T05:38:53.460Z,0.00
2018-12-09T05:39:54.518Z,0.00
2018-12-09T05:40:53.393Z,0.00
2018-12-09T05:41:53.389Z,0.00
2018-12-09T05:42:53.343Z,0.00
2018-12-09T05:45:03.195Z,0.00
2018-12-09T05:46:03.095Z,0.00
2018-12-09T05:47:24.170Z,0.00
2018-12-09T05:48:03.036Z,0.00
2018-12-09T05:49:05.059Z,0.00
2018-12-09T05:50:02.940Z,0.00
2018-12-09T05:52:25.484Z,0.00
2018-12-09T05:53:26.275Z,0.00
2018-12-09T05:54:25.000Z,0.00
2018-12-09T05:55:25.063Z,0.00
2018-12-09T05:56:25.002Z,0.00
2018-12-09T05:57:25.008Z,0.00
2018-12-09T05:58:27.197Z,0.00
2018-12-09T05:59:24.886Z,0.00
2018-12-09T06:00:25.941Z,0.00
2018-12-09T06:01:24.803Z,0.00
2018-12-09T06:05:08.480Z,0.00
2018-12-09T06:06:06.357Z,0.00
2018-12-09T06:07:07.181Z,0.00
2018-12-09T06:08:06.136Z,0.00
2018-12-09T06:09:27.332Z,0.00
2018-12-09T06:10:06.074Z,0.00
2018-12-09T06:11:06.017Z,0.00
2018-12-09T06:15:43.223Z,0.00
2018-12-09T06:16:41.977Z,0.00
2018-12-09T06:17:49.598Z,0.00
2018-12-09T06:18:42.204Z,0.00
2018-12-09T06:19:41.902Z,0.00
2018-12-09T06:20:41.755Z,0.00
2018-12-09T06:24:19.072Z,0.00
2018-12-09T06:25:20.260Z,0.00
2018-12-09T06:26:18.964Z,0.00
2018-12-09T06:27:19.054Z,0.00
2018-12-09T06:28:18.938Z,0.00
2018-12-09T06:29:28.020Z,0.00
2018-12-09T06:30:18.876Z,0.00
2018-12-09T06:31:27.839Z,0.00
2018-12-09T06:32:18.799Z,0.00
2018-12-09T06:33:18.861Z,0.00
2018-12-09T06:36:47.793Z,0.00
2018-12-09T06:37:47.592Z,0.00
2018-12-09T06:38:48.753Z,0.00
2018-12-09T06:39:47.641Z,0.00
2018-12-09T06:40:49.716Z,0.00
2018-12-09T06:41:47.464Z,0.00
2018-12-09T06:42:48.892Z,0.00
2018-12-09T06:43:47.355Z,0.00
2018-12-09T06:44:49.431Z,0.00
2018-12-09T06:46:46.527Z,0.00
2018-12-09T06:47:46.507Z,0.00
2018-12-09T06:48:46.359Z,0.00
2018-12-09T06:49:47.472Z,0.00
2018-12-09T06:50:46.336Z,0.00
2018-12-09T06:51:46.670Z,0.00
2018-12-09T06:52:46.241Z,0.00
2018-12-09T06:53:46.323Z,0.00
2018-12-09T06:54:46.225Z,0.00
2018-12-09T06:55:46.263Z,0.00
2018-12-09T06:57:48.863Z,0.00
2018-12-09T06:58:47.186Z,0.00
2018-12-09T06:59:48.608Z,0.00
2018-12-09T07:00:47.057Z,0.00
2018-12-09T07:01:47.183Z,0.00
2018-12-09T07:03:49.011Z,0.00
2018-12-09T07:04:47.929Z,0.00
2018-12-09T07:05:47.958Z,4.00
2018-12-09T07:06:47.948Z,4.00
2018-12-09T07:07:48.956Z,0.00
2018-12-09T07:08:48.555Z,4.00
2018-12-09T07:12:30.229Z,12.00
2018-12-09T07:13:31.450Z,4.00
2018-12-09T07:14:30.281Z,4.00
2018-12-09T07:15:36.977Z,8.00
2018-12-09T07:36:54.558Z,36.00
2018-12-09T07:37:38.882Z,28.00
2018-12-09T07:41:30.275Z,24.00
2018-12-09T07:42:30.136Z,40.00
2018-12-09T07:43:30.092Z,44.00
2018-12-09T07:44:30.354Z,36.00
2018-12-09T07:45:30.064Z,68.00
2018-12-09T07:46:29.984Z,104.00
2018-12-09T07:49:54.856Z,112.00
2018-12-09T07:50:54.505Z,132.00
2018-12-09T07:51:54.965Z,152.00
2018-12-09T07:52:54.351Z,168.00
2018-12-09T07:53:54.484Z,140.00
2018-12-09T07:54:54.654Z,140.00
2018-12-09T07:55:54.313Z,164.00
2018-12-09T07:56:54.213Z,224.00
2018-12-09T07:59:02.836Z,164.00
2018-12-09T08:00:03.322Z,156.00
2018-12-09T08:01:02.715Z,180.00
2018-12-09T08:02:02.909Z,208.00
2018-12-09T08:03:02.710Z,260.00
2018-12-09T08:04:03.925Z,248.00
2018-12-09T08:05:02.662Z,184.00
2018-12-09T08:06:03.250Z,244.00
2018-12-09T08:07:02.535Z,276.00
2018-12-09T08:08:02.574Z,296.00
2018-12-09T08:09:02.494Z,240.00
2018-12-09T08:11:00.087Z,168.00
2018-12-09T08:11:59.489Z,132.00
2018-12-09T08:13:15.259Z,144.00
2018-12-09T08:13:59.772Z,252.00
2018-12-09T08:14:59.455Z,432.00
2018-12-09T08:15:59.325Z,596.00
2018-12-09T08:18:16.541Z,468.00
2018-12-09T08:19:16.442Z,340.00
2018-12-09T08:21:27.327Z,328.00
2018-12-09T08:22:29.448Z,368.00
2018-12-09T08:23:28.614Z,440.00
2018-12-09T08:24:27.122Z,448.00
2018-12-09T08:26:18.054Z,424.00
2018-12-09T08:27:17.782Z,444.00
2018-12-09T08:29:11.156Z,372.00
2018-12-09T08:30:11.207Z,428.00
2018-12-09T08:31:11.101Z,484.00
2018-12-09T08:32:11.086Z,440.00
2018-12-09T08:33:11.256Z,420.00
2018-12-09T08:34:10.973Z,380.00
2018-12-09T08:35:11.143Z,380.00
2018-12-09T08:36:10.970Z,428.00
2018-12-09T08:37:10.887Z,448.00
2018-12-09T08:38:58.075Z,384.00
2018-12-09T08:39:56.877Z,432.00
2018-12-09T08:40:56.854Z,480.00
2018-12-09T08:41:57.231Z,408.00
2018-12-09T08:42:56.723Z,260.00
2018-12-09T08:45:07.567Z,176.00
2018-12-09T08:46:07.654Z,192.00
2018-12-09T08:47:07.487Z,236.00
2018-12-09T08:48:07.413Z,256.00
2018-12-09T08:49:07.451Z,256.00
2018-12-09T08:50:07.646Z,272.00
2018-12-09T08:51:08.391Z,284.00
2018-12-09T08:52:07.225Z,296.00
2018-12-09T08:54:08.782Z,304.00
2018-12-09T08:55:08.737Z,292.00
2018-12-09T08:56:08.696Z,288.00
2018-12-09T08:57:08.648Z,280.00
2018-12-09T08:58:08.653Z,300.00
2018-12-09T08:59:08.720Z,356.00
2018-12-09T09:00:08.791Z,384.00
2018-12-09T09:01:08.644Z,400.00
2018-12-09T09:02:08.494Z,440.00
2018-12-09T09:03:08.552Z,508.00
2018-12-09T09:03:56.207Z,540.00
2018-12-09T09:04:56.119Z,552.00
2018-12-09T09:07:00.687Z,696.00
2018-12-09T09:08:00.621Z,712.00
2018-12-09T09:09:00.644Z,740.00
2018-12-09T09:10:01.661Z,796.00
2018-12-09T09:11:00.535Z,868.00
2018-12-09T09:12:00.513Z,896.00
2018-12-09T09:13:00.600Z,648.00
2018-12-09T09:14:00.418Z,564.00
2018-12-09T09:15:00.535Z,528.00
2018-12-09T09:16:00.371Z,484.00
2018-12-09T09:16:46.188Z,416.00
2018-12-09T09:17:48.275Z,428.00
2018-12-09T09:18:46.158Z,396.00
2018-12-09T09:19:46.209Z,332.00
2018-12-09T09:20:38.020Z,324.00
2018-12-09T09:21:37.994Z,372.00
2018-12-09T09:22:38.025Z,400.00
2018-12-09T09:23:38.233Z,360.00
2018-12-09T09:24:37.945Z,284.00
2018-12-09T09:25:37.853Z,264.00
2018-12-09T10:08:20.715Z,1404.00
2018-12-09T10:09:26.748Z,1448.00
2018-12-09T10:10:19.764Z,1508.00
2018-12-09T10:11:21.219Z,1556.00
2018-12-09T10:12:19.607Z,1628.00
2018-12-09T10:13:21.661Z,1692.00
2018-12-09T10:14:19.590Z,1732.00
2018-12-09T10:22:01.300Z,1672.00
2018-12-09T10:22:32.611Z,1692.00
2018-12-09T10:23:57.257Z,1708.00
2018-12-09T10:24:32.431Z,1688.00
2018-12-09T10:45:07.493Z,1132.00
2018-12-09T10:46:07.251Z,1176.00
2018-12-09T10:47:16.149Z,1188.00
2018-12-09T10:48:07.295Z,1196.00
2018-12-09T10:49:07.340Z,1248.00
2018-12-09T10:50:07.191Z,1288.00
2018-12-09T10:55:47.431Z,1400.00
2018-12-09T10:58:32.480Z,1500.00
2018-12-09T10:59:19.434Z,1512.00
2018-12-09T11:00:21.510Z,1492.00
2018-12-09T11:01:19.375Z,1488.00
2018-12-09T11:02:20.444Z,1492.00
2018-12-09T11:03:19.280Z,1488.00
2018-12-09T11:14:27.760Z,1668.00
2018-12-09T11:15:27.723Z,1656.00
2018-12-09T11:16:27.640Z,1636.00
2018-12-09T11:17:27.645Z,1592.00
2018-12-09T11:18:27.578Z,1552.00
2018-12-09T11:19:29.566Z,1560.00
2018-12-09T11:20:27.446Z,1584.00
2018-12-09T11:21:35.448Z,1608.00
2018-12-09T11:22:27.376Z,1604.00
2018-12-09T11:23:28.468Z,1576.00
2018-12-09T11:26:53.431Z,1440.00
2018-12-09T11:27:54.475Z,1420.00
2018-12-09T11:28:53.326Z,1456.00
2018-12-09T11:29:53.315Z,1444.00
2018-12-09T11:30:53.362Z,1360.00
2018-12-09T11:31:53.242Z,1304.00
2018-12-09T11:32:54.314Z,1236.00
2018-12-09T11:33:53.182Z,1220.00
2018-12-09T11:34:53.287Z,1220.00
2018-12-09T11:37:03.331Z,1360.00
2018-12-09T11:38:03.459Z,1316.00
2018-12-09T11:39:03.225Z,1172.00
2018-12-09T11:40:18.307Z,1236.00
2018-12-09T11:41:03.164Z,1224.00
2018-12-09T11:42:04.317Z,1064.00
2018-12-09T11:43:03.099Z,852.00
2018-12-09T11:44:04.199Z,768.00
2018-12-09T11:47:02.539Z,948.00
2018-12-09T11:48:02.472Z,964.00
2018-12-09T11:50:01.863Z,1548.00
2018-12-09T11:51:01.679Z,1496.00
2018-12-09T11:52:02.806Z,1376.00
2018-12-09T11:53:01.629Z,1296.00
2018-12-09T11:54:03.740Z,1216.00
2018-12-09T11:55:01.570Z,1088.00
2018-12-09T11:56:01.597Z,1184.00
2018-12-09T11:57:01.526Z,1224.00
2018-12-09T11:58:02.653Z,1168.00
2018-12-09T11:59:01.461Z,1088.00
2018-12-09T12:02:59.400Z,960.00
2018-12-09T12:03:59.307Z,1000.00
2018-12-09T12:04:59.408Z,980.00
2018-12-09T12:05:59.251Z,1104.00
2018-12-09T12:06:59.235Z,972.00
2018-12-09T12:07:59.329Z,1016.00
2018-12-09T12:08:59.162Z,1132.00
2018-12-09T12:10:00.266Z,1200.00
2018-12-09T12:10:59.124Z,1184.00
2018-12-09T12:11:59.075Z,968.00
2018-12-09T12:12:59.051Z,980.00
2018-12-09T12:14:22.927Z,1104.00
2018-12-09T12:15:24.982Z,1612.00
2018-12-09T12:16:22.829Z,1356.00
2018-12-09T12:17:29.915Z,1352.00
2018-12-09T12:18:22.767Z,1284.00
2018-12-09T12:19:22.865Z,1492.00
2018-12-09T12:20:22.696Z,1764.00
2018-12-09T12:21:24.821Z,1512.00
2018-12-09T12:22:22.623Z,1384.00
2018-12-09T12:23:23.716Z,1188.00
2018-12-09T12:24:22.574Z,1096.00
2018-12-09T12:26:16.411Z,1504.00
2018-12-09T12:27:17.581Z,1448.00
2018-12-09T12:28:16.276Z,1492.00
2018-12-09T12:29:16.439Z,1384.00
2018-12-09T12:30:16.202Z,1584.00
2018-12-09T12:31:17.331Z,1764.00
2018-12-09T12:32:16.131Z,1232.00
2018-12-09T12:33:17.222Z,1316.00
2018-12-09T12:34:16.066Z,1620.00
2018-12-09T12:35:16.213Z,1568.00
2018-12-09T12:36:15.995Z,1212.00
2018-12-09T12:37:16.092Z,1300.00
2018-12-09T12:39:11.594Z,1808.00
2018-12-09T12:40:11.619Z,1536.00
2018-12-09T12:41:11.671Z,1400.00
2018-12-09T12:42:11.507Z,1156.00
2018-12-09T12:43:18.313Z,1180.00
2018-12-09T12:44:11.418Z,1304.00
2018-12-09T12:45:11.422Z,1092.00
2018-12-09T12:47:50.192Z,1308.00
2018-12-09T12:48:48.267Z,1192.00
2018-12-09T12:50:45.299Z,1028.00
2018-12-09T12:51:42.723Z,916.00
2018-12-09T12:52:42.839Z,1036.00
2018-12-09T12:53:42.652Z,920.00
2018-12-09T12:54:44.782Z,908.00
2018-12-09T12:55:42.598Z,1232.00
2018-12-09T12:56:42.570Z,1364.00
2018-12-09T13:01:25.783Z,956.00
2018-12-09T13:02:25.814Z,784.00
2018-12-09T13:03:25.732Z,844.00
2018-12-09T13:04:27.772Z,848.00
2018-12-09T13:05:25.673Z,916.00
2018-12-09T13:06:25.596Z,984.00
2018-12-09T13:07:25.614Z,1024.00
2018-12-09T13:08:25.505Z,1156.00
2018-12-09T13:12:29.489Z,1228.00
2018-12-09T13:13:29.554Z,1260.00
2018-12-09T13:14:29.395Z,1656.00
2018-12-09T13:15:29.576Z,1832.00
2018-12-09T13:16:29.291Z,1612.00
2018-12-09T13:17:29.422Z,1052.00
2018-12-09T13:18:29.197Z,840.00
2018-12-09T13:21:06.900Z,888.00
2018-12-09T13:22:07.902Z,888.00
2018-12-09T13:23:06.741Z,936.00
2018-12-09T13:24:06.903Z,980.00
2018-12-09T13:25:06.756Z,784.00
2018-12-09T13:26:06.693Z,772.00
2018-12-09T13:27:06.647Z,764.00
2018-12-09T13:28:06.772Z,808.00
2018-12-09T13:29:06.778Z,980.00
2018-12-09T13:32:19.316Z,1284.00
2018-12-09T13:33:19.400Z,1064.00
2018-12-09T13:34:19.300Z,740.00
2018-12-09T13:35:19.405Z,756.00
2018-12-09T13:36:19.228Z,824.00
2018-12-09T13:37:21.353Z,1188.00
2018-12-09T13:38:19.144Z,936.00
2018-12-09T13:39:19.367Z,904.00
2018-12-09T13:40:19.047Z,988.00
2018-12-09T13:42:06.304Z,832.00
2018-12-09T13:43:06.273Z,824.00
2018-12-09T13:44:06.279Z,880.00
2018-12-09T13:45:06.259Z,896.00
2018-12-09T13:46:06.201Z,1452.00
2018-12-09T13:47:13.421Z,1268.00
2018-12-09T13:48:06.123Z,1372.00
2018-12-09T13:49:06.186Z,1548.00
2018-12-09T13:50:07.467Z,912.00
2018-12-09T13:51:07.053Z,976.00
2018-12-09T13:52:06.967Z,792.00
2018-12-09T13:53:07.992Z,808.00
2018-12-09T13:54:06.879Z,580.00
2018-12-09T13:55:06.938Z,672.00
2018-12-09T13:56:06.779Z,836.00
2018-12-09T13:57:06.817Z,896.00
2018-12-09T13:58:06.714Z,796.00
2018-12-09T13:59:07.789Z,740.00
2018-12-09T14:00:06.656Z,768.00
2018-12-09T14:01:06.748Z,728.00
2018-12-09T14:02:06.600Z,628.00
2018-12-09T14:03:06.582Z,692.00
2018-12-09T14:04:08.706Z,652.00
2018-12-09T14:05:06.535Z,464.00
2018-12-09T14:06:59.914Z,456.00
2018-12-09T14:08:00.588Z,588.00
2018-12-09T14:08:58.849Z,544.00
2018-12-09T14:09:58.759Z,548.00
2018-12-09T14:11:00.599Z,520.00
2018-12-09T14:11:59.793Z,524.00
2018-12-09T14:12:58.684Z,568.00
2018-12-09T14:13:59.658Z,684.00
2018-12-09T14:15:51.442Z,656.00
2018-12-09T14:16:51.373Z,584.00
2018-12-09T14:17:51.289Z,544.00
2018-12-09T14:18:52.374Z,496.00
2018-12-09T14:19:51.258Z,440.00
2018-12-09T14:21:00.011Z,472.00
2018-12-09T14:21:51.155Z,512.00
2018-12-09T14:22:51.216Z,580.00
2018-12-09T14:23:51.114Z,480.00
2018-12-09T14:25:05.968Z,504.00
2018-12-09T14:25:51.079Z,480.00
2018-12-09T14:26:52.079Z,480.00
2018-12-09T14:27:50.986Z,496.00
2018-12-09T14:28:53.086Z,520.00
2018-12-09T14:29:50.930Z,500.00
2018-12-09T14:30:52.940Z,528.00
2018-12-09T14:31:50.860Z,444.00
2018-12-09T14:32:50.875Z,452.00
2018-12-09T14:35:35.146Z,360.00
2018-12-09T14:36:42.939Z,324.00
2018-12-09T14:37:35.069Z,264.00
2018-12-09T14:38:35.041Z,232.00
2018-12-09T14:39:34.996Z,264.00
2018-12-09T14:40:35.174Z,280.00
2018-12-09T14:41:34.917Z,268.00
2018-12-09T14:42:35.039Z,276.00
2018-12-09T14:43:35.045Z,264.00
2018-12-09T14:44:34.971Z,220.00
2018-12-09T14:45:36.842Z,212.00
2018-12-09T14:52:13.385Z,164.00
2018-12-09T14:53:12.373Z,180.00
2018-12-09T14:54:12.419Z,164.00
2018-12-09T14:56:14.443Z,148.00
2018-12-09T14:57:14.330Z,116.00
2018-12-09T14:58:15.440Z,104.00
2018-12-09T14:59:14.233Z,96.00
2018-12-09T15:00:14.355Z,68.00
2018-12-09T15:01:14.177Z,64.00
2018-12-09T15:02:15.244Z,68.00
2018-12-09T15:07:15.000Z,92.00
2018-12-09T15:08:14.941Z,96.00
2018-12-09T15:09:16.057Z,92.00
2018-12-09T15:10:14.853Z,88.00
2018-12-09T15:11:14.897Z,76.00
2018-12-09T15:12:14.786Z,72.00
2018-12-09T15:13:14.776Z,68.00
2018-12-09T15:14:21.689Z,68.00
2018-12-09T15:15:14.668Z,68.00
2018-12-09T15:16:14.721Z,68.00
2018-12-09T15:18:39.917Z,64.00
2018-12-09T15:19:39.795Z,60.00
2018-12-09T15:21:34.529Z,52.00
2018-12-09T15:22:34.705Z,48.00
2018-12-09T15:23:34.885Z,40.00
2018-12-09T15:24:41.820Z,36.00
2018-12-09T15:25:34.390Z,36.00
2018-12-09T15:26:35.384Z,32.00
2018-12-09T15:27:34.293Z,32.00
2018-12-09T15:28:34.250Z,24.00
2018-12-09T15:29:34.214Z,24.00
2018-12-09T15:31:29.321Z,20.00
2018-12-09T15:32:29.284Z,16.00
2018-12-09T15:33:29.187Z,16.00
2018-12-09T15:34:29.181Z,8.00
2018-12-09T15:35:29.156Z,8.00
2018-12-09T15:36:35.859Z,8.00
2018-12-09T15:37:29.045Z,8.00
2018-12-09T15:39:26.632Z,8.00
2018-12-09T15:40:26.510Z,8.00
2018-12-09T15:41:26.575Z,4.00
2018-12-09T15:42:26.458Z,4.00
2018-12-09T15:43:26.449Z,4.00
2018-12-09T15:45:26.362Z,4.00
2018-12-09T15:46:28.450Z,4.00
2018-12-09T15:47:26.330Z,0.00
2018-12-09T15:49:26.260Z,0.00
2018-12-09T15:51:48.304Z,4.00
2018-12-09T15:52:48.352Z,0.00
2018-12-09T15:53:48.270Z,0.00
2018-12-09T15:54:49.362Z,0.00
2018-12-09T15:55:48.164Z,0.00
2018-12-09T15:56:50.345Z,0.00
2018-12-09T15:57:48.120Z,0.00
2018-12-09T15:58:49.275Z,0.00
2018-12-09T15:59:48.060Z,0.00
2018-12-09T16:01:03.170Z,0.00
2018-12-09T16:01:47.980Z,0.00
2018-12-09T16:05:15.037Z,0.00
2018-12-09T16:06:14.987Z,0.00
2018-12-09T16:07:15.106Z,0.00
2018-12-09T16:08:14.937Z,0.00
2018-12-09T16:09:16.018Z,0.00
2018-12-09T16:10:14.906Z,0.00
2018-12-09T16:11:14.836Z,0.00
2018-12-09T16:12:15.948Z,0.00
2018-12-09T16:13:14.755Z,0.00
2018-12-09T16:14:30.477Z,0.00
2018-12-09T16:15:30.748Z,0.00
2018-12-09T16:17:24.300Z,0.00
2018-12-09T16:18:24.105Z,0.00
2018-12-09T16:19:25.534Z,0.00
2018-12-09T16:20:24.001Z,0.00
2018-12-09T16:21:23.971Z,0.00
2018-12-09T16:23:16.639Z,0.00
2018-12-09T16:24:16.700Z,0.00
2018-12-09T16:25:16.525Z,0.00
2018-12-09T16:26:16.474Z,0.00
2018-12-09T16:27:16.465Z,0.00
2018-12-09T16:28:16.484Z,0.00
2018-12-09T16:29:17.922Z,0.00
2018-12-09T16:30:16.353Z,0.00
2018-12-09T16:31:16.311Z,0.00
2018-12-09T16:32:16.285Z,0.00
2018-12-09T16:35:49.017Z,0.00
2018-12-09T16:36:48.907Z,0.00
2018-12-09T16:37:48.743Z,0.00
2018-12-09T16:38:48.952Z,0.00
2018-12-09T16:39:48.703Z,0.00
2018-12-09T16:40:48.811Z,0.00
2018-12-09T16:41:48.619Z,0.00
2018-12-09T16:42:48.585Z,0.00
2018-12-09T16:43:49.686Z,0.00
2018-12-09T16:44:44.283Z,0.00
2018-12-09T16:45:44.037Z,0.00
2018-12-09T16:46:44.924Z,0.00
2018-12-09T16:47:43.944Z,0.00
2018-12-09T16:48:43.893Z,0.00
2018-12-09T16:49:43.857Z,0.00
2018-12-09T16:55:19.345Z,0.00
2018-12-09T16:56:14.871Z,0.00
2018-12-09T16:58:14.850Z,0.00
2018-12-09T16:59:30.762Z,0.00
2018-12-09T17:00:14.761Z,0.00
2018-12-09T17:01:15.826Z,0.00
2018-12-09T17:02:14.714Z,0.00
2018-12-09T17:03:14.744Z,0.00
2018-12-09T17:04:14.693Z,0.00
2018-12-09T17:05:15.750Z,0.00
2018-12-09T17:06:14.586Z,0.00
2018-12-09T17:07:30.280Z,0.00
2018-12-09T17:08:14.506Z,0.00
2018-12-09T17:09:22.318Z,0.00
2018-12-09T17:10:14.439Z,0.00
2018-12-09T17:11:16.515Z,0.00
2018-12-09T17:12:14.387Z,0.00
2018-12-09T17:13:14.452Z,0.00
2018-12-09T17:14:14.311Z,0.00
2018-12-09T17:15:14.386Z,0.00
2018-12-09T17:21:56.638Z,0.00
2018-12-09T17:22:56.672Z,0.00
2018-12-09T17:23:56.484Z,0.00
2018-12-09T17:25:04.210Z,0.00
2018-12-09T17:25:56.452Z,0.00
2018-12-09T17:27:22.153Z,0.00
2018-12-09T17:27:56.418Z,0.00
2018-12-09T17:29:17.351Z,0.00
2018-12-09T17:29:56.329Z,0.00
2018-12-09T17:30:56.305Z,0.00
2018-12-09T17:31:56.341Z,0.00
2018-12-09T17:32:56.214Z,0.00
2018-12-09T17:33:58.328Z,0.00
2018-12-09T17:34:56.163Z,0.00
2018-12-09T17:36:04.135Z,0.00
2018-12-09T17:36:56.098Z,0.00
2018-12-09T17:37:56.266Z,0.00
2018-12-09T17:39:57.401Z,0.00
2018-12-09T17:41:14.492Z,0.00
2018-12-09T17:42:13.359Z,0.00
2018-12-09T17:43:15.391Z,0.00
2018-12-09T17:44:13.258Z,0.00
2018-12-09T17:45:15.314Z,0.00
2018-12-09T17:46:13.194Z,0.00
2018-12-09T17:46:59.353Z,0.00
2018-12-09T17:47:59.410Z,0.00
2018-12-09T17:48:59.297Z,0.00
2018-12-09T17:49:59.330Z,0.00
2018-12-09T17:50:59.264Z,0.00
2018-12-09T17:51:59.261Z,0.00
2018-12-09T17:52:59.185Z,0.00
2018-12-09T17:53:59.281Z,0.00
2018-12-09T17:54:59.125Z,0.00
2018-12-09T17:56:01.231Z,0.00
2018-12-09T17:56:59.055Z,0.00
2018-12-09T17:57:59.083Z,0.00
2018-12-09T17:58:58.992Z,0.00
2018-12-09T17:59:59.214Z,0.00
2018-12-09T18:00:58.924Z,0.00
2018-12-09T18:01:59.013Z,0.00
2018-12-09T18:02:58.884Z,0.00
2018-12-09T18:04:00.628Z,0.00
2018-12-09T18:04:58.816Z,0.00
2018-12-09T18:06:50.918Z,0.00
2018-12-09T18:07:50.882Z,0.00
2018-12-09T18:08:50.829Z,0.00
2018-12-09T18:09:50.805Z,0.00
2018-12-09T18:10:50.780Z,0.00
2018-12-09T18:11:51.836Z,0.00
2018-12-09T18:12:50.733Z,0.00
2018-12-09T18:13:52.744Z,0.00